Newton Hamilton, Pennsylvania
Current Conditions -  °F | °C
As of 12:53 AM on Tuesday 21 Oct 2014 (Local Time) from KAOO Reporting Station
Overcast Overcast  
Wind Chill: 50°   Ceiling: 4500
Heat Index: 50°   Visibility: 10mi
Dew Point: 43°   Wind: 5mph
Humidity: 77%   Direction: 220°SW
Pressure: 29.88"   Gusts: NA
Location:  40.39°N, 77.84°W
Report Text: KAOO 210453Z AUTO 22004KT 10SM OVC045 10/06 A2988 RMK AO2 SLP121 T01000061 401330050
Loading
Personal Weather Stations






























Interactive Weather Map
Tropical Storm Tracking
New forecast layout! Learn more

10-Day Weather Forecast

Advertisements
Track Severe Weather on mobile